createdAt,value
2019-06-20T00:00:38.835Z,19.30
2019-06-20T00:03:07.606Z,19.30
2019-06-20T00:05:35.038Z,19.20
2019-06-20T00:08:02.579Z,19.10
2019-06-20T00:10:30.026Z,19.10
2019-06-20T00:13:00.704Z,19.60
2019-06-20T00:15:27.866Z,19.00
2019-06-20T00:17:55.263Z,19.50
2019-06-20T00:20:22.982Z,19.10
2019-06-20T00:22:50.463Z,19.30
2019-06-20T00:25:17.914Z,19.30
2019-06-20T00:27:45.390Z,19.10
2019-06-20T00:30:13.733Z,19.10
2019-06-20T00:32:41.175Z,19.10
2019-06-20T00:35:08.812Z,19.00
2019-06-20T00:37:36.170Z,19.00
2019-06-20T00:40:04.832Z,19.00
2019-06-20T00:42:32.311Z,18.90
2019-06-20T00:44:59.665Z,18.90
2019-06-20T00:47:27.444Z,18.90
2019-06-20T00:49:55.046Z,18.90
2019-06-20T00:52:22.407Z,18.90
2019-06-20T00:54:49.932Z,18.90
2019-06-20T00:57:17.458Z,18.90
2019-06-20T00:59:45.245Z,19.00
2019-06-20T01:02:12.793Z,19.00
2019-06-20T01:04:40.201Z,19.00
2019-06-20T01:07:07.760Z,19.10
2019-06-20T01:09:35.169Z,19.10
2019-06-20T01:12:02.820Z,19.00
2019-06-20T01:14:30.385Z,19.10
2019-06-20T01:16:57.754Z,19.20
2019-06-20T01:19:25.303Z,19.10
2019-06-20T01:21:52.774Z,19.10
2019-06-20T01:24:20.462Z,19.20
2019-06-20T01:26:47.907Z,19.20
2019-06-20T01:29:15.437Z,19.20
2019-06-20T01:31:42.793Z,19.30
2019-06-20T01:34:10.358Z,19.20
2019-06-20T01:36:37.811Z,19.10
2019-06-20T01:39:06.070Z,19.20
2019-06-20T01:41:33.928Z,19.20
2019-06-20T01:44:01.593Z,19.20
2019-06-20T01:46:29.212Z,19.20
2019-06-20T01:48:57.662Z,19.20
2019-06-20T01:51:25.316Z,19.20
2019-06-20T01:53:53.761Z,19.20
2019-06-20T01:56:21.221Z,19.30
2019-06-20T01:58:48.686Z,19.30
2019-06-20T02:01:16.114Z,19.30
2019-06-20T02:03:43.597Z,19.30
2019-06-20T02:06:11.052Z,19.30
2019-06-20T02:08:38.532Z,19.40
2019-06-20T02:11:06.041Z,19.40
2019-06-20T02:13:33.482Z,19.50
2019-06-20T02:16:01.219Z,19.50
2019-06-20T02:18:28.769Z,19.50
2019-06-20T02:20:57.557Z,19.60
2019-06-20T02:23:25.227Z,19.50
2019-06-20T02:25:53.680Z,19.50
2019-06-20T02:28:21.770Z,19.50
2019-06-20T02:30:49.622Z,19.50
2019-06-20T02:33:17.203Z,19.50
2019-06-20T02:35:44.737Z,19.50
2019-06-20T02:38:12.088Z,19.40
2019-06-20T02:40:39.531Z,19.40
2019-06-20T02:43:07.310Z,19.50
2019-06-20T02:45:37.799Z,19.40
2019-06-20T02:48:05.592Z,19.40
2019-06-20T02:50:33.348Z,19.50
2019-06-20T02:53:01.094Z,19.50
2019-06-20T02:55:28.623Z,19.50
2019-06-20T02:57:56.287Z,19.40
2019-06-20T03:00:49.253Z,19.40
2019-06-20T03:03:16.617Z,19.40
2019-06-20T03:05:44.143Z,19.40
2019-06-20T03:08:11.603Z,19.50
2019-06-20T03:10:39.130Z,19.60
2019-06-20T03:13:09.375Z,19.60
2019-06-20T03:15:35.905Z,19.80
2019-06-20T03:18:03.536Z,19.60
2019-06-20T03:20:31.171Z,19.70
2019-06-20T03:22:58.489Z,19.70
2019-06-20T03:25:26.086Z,19.70
2019-06-20T03:27:54.027Z,19.80
2019-06-20T03:30:21.788Z,19.80
2019-06-20T03:32:49.281Z,19.90
2019-06-20T03:35:16.865Z,20.00
2019-06-20T03:37:44.356Z,20.00
2019-06-20T03:40:12.056Z,20.00
2019-06-20T03:42:39.696Z,20.10
2019-06-20T03:45:07.412Z,19.90
2019-06-20T03:47:34.999Z,20.20
2019-06-20T03:50:02.478Z,20.20
2019-06-20T03:52:30.004Z,20.30
2019-06-20T03:54:57.696Z,20.30
2019-06-20T03:57:25.175Z,20.30
2019-06-20T03:59:52.787Z,20.40
2019-06-20T04:02:20.361Z,20.30
2019-06-20T04:04:47.850Z,20.40
2019-06-20T04:07:15.347Z,20.40
2019-06-20T04:09:43.041Z,20.50
2019-06-20T04:12:10.423Z,20.50
2019-06-20T04:14:37.860Z,20.50
2019-06-20T04:17:05.443Z,20.60
2019-06-20T04:19:32.865Z,20.60
2019-06-20T04:22:00.427Z,20.70
2019-06-20T04:24:28.170Z,20.70
2019-06-20T04:26:55.982Z,20.70
2019-06-20T04:29:23.461Z,20.90
2019-06-20T04:31:50.888Z,20.80
2019-06-20T04:34:22.519Z,20.90
2019-06-20T04:36:49.863Z,21.00
2019-06-20T04:39:19.470Z,21.10
2019-06-20T04:41:46.736Z,21.20
2019-06-20T04:44:14.575Z,21.20
2019-06-20T04:47:01.649Z,21.40
2019-06-20T04:49:29.076Z,21.40
2019-06-20T04:51:57.384Z,21.50
2019-06-20T04:54:25.612Z,21.60
2019-06-20T04:56:53.177Z,21.70
2019-06-20T04:59:21.746Z,21.80
2019-06-20T05:01:49.144Z,21.90
2019-06-20T05:04:16.548Z,22.00
2019-06-20T05:06:48.956Z,22.10
2019-06-20T05:09:16.473Z,22.10
2019-06-20T05:11:43.950Z,22.20
2019-06-20T05:14:12.443Z,22.30
2019-06-20T05:16:39.938Z,22.40
2019-06-20T05:19:07.863Z,22.40
2019-06-20T05:21:36.515Z,22.50
2019-06-20T05:24:04.185Z,22.60
2019-06-20T05:26:31.701Z,22.60
2019-06-20T05:28:59.441Z,22.60
2019-06-20T05:31:27.184Z,22.70
2019-06-20T05:33:54.796Z,22.70
2019-06-20T05:36:22.391Z,22.80
2019-06-20T05:38:50.292Z,23.00
2019-06-20T05:41:19.056Z,23.00
2019-06-20T05:43:47.287Z,23.10
2019-06-20T05:46:14.630Z,23.30
2019-06-20T05:48:41.959Z,23.40
2019-06-20T05:51:09.390Z,23.60
2019-06-20T05:53:36.729Z,23.60
2019-06-20T05:56:04.251Z,23.80
2019-06-20T05:58:31.577Z,23.80
2019-06-20T06:00:59.044Z,24.00
2019-06-20T06:03:26.524Z,24.10
2019-06-20T06:05:54.674Z,24.30
2019-06-20T06:08:22.292Z,24.40
2019-06-20T06:10:49.852Z,24.60
2019-06-20T06:13:19.181Z,24.80
2019-06-20T06:15:46.751Z,25.00
2019-06-20T06:18:14.251Z,25.10
2019-06-20T06:20:44.771Z,25.50
2019-06-20T06:23:11.187Z,25.30
2019-06-20T06:25:40.557Z,25.60
2019-06-20T06:28:12.258Z,25.80
2019-06-20T06:30:41.121Z,26.10
2019-06-20T06:33:08.668Z,26.20
2019-06-20T06:35:36.298Z,26.50
2019-06-20T06:38:03.718Z,26.70
2019-06-20T06:40:31.290Z,26.70
2019-06-20T06:42:58.873Z,26.60
2019-06-20T06:45:26.604Z,26.60
2019-06-20T06:47:53.974Z,26.70
2019-06-20T06:50:21.868Z,26.70
2019-06-20T06:52:49.472Z,26.80
2019-06-20T06:55:17.701Z,26.70
2019-06-20T06:57:45.131Z,26.80
2019-06-20T07:00:12.882Z,26.70
2019-06-20T07:02:40.487Z,26.80
2019-06-20T07:05:10.071Z,26.80
2019-06-20T07:07:39.582Z,26.90
2019-06-20T07:10:09.148Z,27.00
2019-06-20T07:12:36.710Z,27.00
2019-06-20T07:15:05.289Z,27.10
2019-06-20T07:17:34.007Z,27.30
2019-06-20T07:20:01.723Z,27.30
2019-06-20T07:22:29.467Z,27.40
2019-06-20T07:24:56.957Z,27.60
2019-06-20T07:27:24.412Z,27.60
2019-06-20T07:29:52.757Z,27.70
2019-06-20T07:32:20.192Z,27.80
2019-06-20T07:34:48.560Z,27.80
2019-06-20T07:37:15.857Z,27.90
2019-06-20T07:39:43.275Z,27.90
2019-06-20T07:42:10.685Z,27.90
2019-06-20T07:44:38.401Z,28.00
2019-06-20T07:47:16.977Z,27.90
2019-06-20T07:49:36.685Z,28.10
2019-06-20T07:52:04.366Z,28.10
2019-06-20T07:54:31.807Z,28.20
2019-06-20T07:56:59.941Z,28.30
2019-06-20T07:59:28.001Z,28.50
2019-06-20T08:01:57.201Z,28.70
2019-06-20T08:04:25.323Z,28.90
2019-06-20T08:06:52.885Z,29.10
2019-06-20T08:09:22.140Z,29.30
2019-06-20T08:11:50.643Z,29.40
2019-06-20T08:14:18.189Z,29.60
2019-06-20T08:16:45.711Z,29.80
2019-06-20T08:19:14.912Z,30.00
2019-06-20T08:21:44.258Z,30.30
2019-06-20T08:24:11.762Z,30.60
2019-06-20T08:26:39.395Z,30.90
2019-06-20T08:29:20.113Z,31.20
2019-06-20T08:31:38.301Z,31.60
2019-06-20T08:34:06.528Z,31.80
2019-06-20T08:36:34.005Z,31.90
2019-06-20T08:39:02.639Z,32.00
2019-06-20T08:41:31.799Z,32.00
2019-06-20T08:44:01.771Z,32.00
2019-06-20T08:46:30.010Z,31.90
2019-06-20T08:48:58.259Z,31.90
2019-06-20T08:51:26.862Z,31.90
2019-06-20T08:53:56.323Z,32.00
2019-06-20T08:56:25.118Z,32.10
2019-06-20T08:58:52.713Z,32.10
2019-06-20T09:01:22.665Z,32.00
2019-06-20T09:03:50.337Z,31.90
2019-06-20T09:06:17.903Z,32.00
2019-06-20T09:08:45.224Z,31.80
2019-06-20T09:11:12.651Z,31.60
2019-06-20T09:13:41.564Z,31.50
2019-06-20T09:16:23.844Z,31.50
2019-06-20T09:18:39.424Z,31.40
2019-06-20T09:21:08.007Z,31.40
2019-06-20T09:23:35.795Z,31.40
2019-06-20T09:26:03.932Z,31.30
2019-06-20T09:28:31.470Z,31.20
2019-06-20T09:30:59.235Z,31.00
2019-06-20T09:33:26.735Z,30.80
2019-06-20T09:35:55.592Z,30.80
2019-06-20T09:38:23.703Z,30.50
2019-06-20T09:40:53.050Z,30.70
2019-06-20T09:43:27.533Z,30.60
2019-06-20T09:45:51.371Z,30.60
2019-06-20T09:48:20.446Z,30.60
2019-06-20T09:50:49.295Z,30.70
2019-06-20T09:53:20.413Z,30.60
2019-06-20T09:55:48.841Z,30.70
2019-06-20T09:58:18.304Z,30.70
2019-06-20T10:00:47.602Z,30.70
2019-06-20T10:03:15.830Z,30.70
2019-06-20T10:05:43.430Z,30.70
2019-06-20T10:08:13.068Z,30.70
2019-06-20T10:10:40.742Z,30.70
2019-06-20T10:13:08.152Z,30.70
2019-06-20T10:15:40.113Z,30.80
2019-06-20T10:18:08.230Z,31.00
2019-06-20T10:20:38.798Z,31.10
2019-06-20T10:23:06.410Z,31.30
2019-06-20T10:25:34.660Z,31.40
2019-06-20T10:28:03.174Z,31.50
2019-06-20T10:30:30.970Z,31.90
2019-06-20T10:32:58.435Z,32.40
2019-06-20T10:35:26.155Z,32.70
2019-06-20T10:37:53.633Z,33.10
2019-06-20T10:40:22.784Z,33.30
2019-06-20T10:42:54.063Z,33.70
2019-06-20T10:45:23.480Z,34.10
2019-06-20T10:47:52.740Z,34.50
2019-06-20T10:50:22.980Z,35.00
2019-06-20T10:52:51.861Z,35.50
2019-06-20T10:55:21.601Z,36.20
2019-06-20T10:57:51.867Z,36.80
2019-06-20T11:00:31.539Z,37.50
2019-06-20T11:03:04.042Z,38.30
2019-06-20T11:05:33.117Z,39.40
2019-06-20T11:08:02.211Z,40.20
2019-06-20T11:10:30.547Z,40.60
2019-06-20T11:12:58.048Z,40.70
2019-06-20T11:15:26.796Z,40.50
2019-06-20T11:17:56.582Z,40.50
2019-06-20T11:20:27.020Z,40.70
2019-06-20T11:22:54.554Z,40.90
2019-06-20T11:25:22.620Z,40.20
2019-06-20T11:27:50.548Z,40.40
2019-06-20T11:30:22.322Z,40.60
2019-06-20T11:32:51.479Z,40.60
2019-06-20T11:35:20.064Z,40.30
2019-06-20T11:37:47.854Z,40.40
2019-06-20T11:40:16.241Z,40.40
2019-06-20T11:42:44.626Z,40.20
2019-06-20T11:45:15.574Z,40.10
2019-06-20T11:47:47.313Z,40.00
2019-06-20T11:50:19.582Z,39.70
2019-06-20T11:52:47.456Z,39.40
2019-06-20T11:55:15.812Z,39.10
2019-06-20T11:57:44.616Z,38.80
2019-06-20T12:00:12.667Z,38.40
2019-06-20T12:02:41.082Z,38.20
2019-06-20T12:05:11.725Z,38.00
2019-06-20T12:07:41.088Z,38.10
2019-06-20T12:10:11.170Z,38.40
2019-06-20T12:12:39.559Z,38.60
2019-06-20T12:15:08.576Z,38.60
2019-06-20T12:17:36.160Z,38.20
2019-06-20T12:20:04.424Z,38.20
2019-06-20T12:22:31.874Z,38.00
2019-06-20T12:24:59.342Z,37.90
2019-06-20T12:27:26.744Z,37.90
2019-06-20T12:29:54.242Z,38.00
2019-06-20T12:32:21.787Z,38.10
2019-06-20T12:34:49.425Z,38.00
2019-06-20T12:37:16.771Z,37.90
2019-06-20T12:39:44.450Z,37.70
2019-06-20T12:42:12.033Z,37.60
2019-06-20T12:44:40.117Z,37.80
2019-06-20T12:47:09.177Z,37.90
2019-06-20T12:49:37.272Z,37.90
2019-06-20T12:52:05.989Z,37.90
2019-06-20T12:54:33.495Z,37.70
2019-06-20T12:57:02.069Z,37.40
2019-06-20T12:59:29.535Z,37.10
2019-06-20T13:01:57.298Z,36.80
2019-06-20T13:04:24.814Z,36.40
2019-06-20T13:06:52.453Z,36.10
2019-06-20T13:09:20.316Z,35.70
2019-06-20T13:11:49.945Z,35.40
2019-06-20T13:14:17.676Z,35.20
2019-06-20T13:16:46.038Z,35.00
2019-06-20T13:19:13.713Z,34.90
2019-06-20T13:21:42.068Z,34.90
2019-06-20T13:24:09.487Z,35.00
2019-06-20T13:26:44.342Z,35.00
2019-06-20T13:29:11.934Z,35.20
2019-06-20T13:31:56.581Z,35.50
2019-06-20T13:34:08.635Z,35.60
2019-06-20T13:36:36.261Z,35.70
2019-06-20T13:39:05.965Z,35.90
2019-06-20T13:41:35.030Z,36.30
2019-06-20T13:44:02.780Z,36.60
2019-06-20T13:46:30.373Z,37.00
2019-06-20T13:48:58.129Z,37.30
2019-06-20T13:51:25.556Z,37.40
2019-06-20T13:53:52.888Z,37.40
2019-06-20T13:56:20.817Z,37.30
2019-06-20T13:58:48.809Z,37.00
2019-06-20T14:01:16.641Z,36.70
2019-06-20T14:03:45.705Z,36.10
2019-06-20T14:06:13.407Z,35.40
2019-06-20T14:08:42.380Z,34.70
2019-06-20T14:11:10.358Z,33.90
2019-06-20T14:13:38.132Z,33.40
2019-06-20T14:16:05.703Z,32.70
2019-06-20T14:18:33.195Z,32.10
2019-06-20T14:21:01.871Z,31.60
2019-06-20T14:23:30.487Z,31.30
2019-06-20T14:25:57.957Z,31.00
2019-06-20T14:28:25.484Z,30.80
2019-06-20T14:30:53.278Z,30.60
2019-06-20T14:33:20.827Z,30.30
2019-06-20T14:35:49.732Z,30.00
2019-06-20T14:38:18.052Z,29.70
2019-06-20T14:40:48.214Z,29.40
2019-06-20T14:43:17.767Z,28.90
2019-06-20T14:45:46.872Z,28.40
2019-06-20T14:48:14.280Z,28.10
2019-06-20T14:50:43.809Z,27.90
2019-06-20T14:53:11.215Z,27.70
2019-06-20T14:55:40.060Z,27.60
2019-06-20T14:58:07.730Z,27.60
2019-06-20T15:00:35.241Z,27.60
2019-06-20T15:03:03.327Z,27.50
2019-06-20T15:05:34.087Z,27.40
2019-06-20T15:08:00.224Z,27.40
2019-06-20T15:10:27.631Z,27.20
2019-06-20T15:12:55.900Z,27.10
2019-06-20T15:15:24.340Z,27.10
2019-06-20T15:17:54.040Z,27.10
2019-06-20T15:20:21.482Z,27.20
2019-06-20T15:22:50.831Z,27.20
2019-06-20T15:25:18.920Z,27.10
2019-06-20T15:27:48.082Z,27.00
2019-06-20T15:30:17.276Z,26.90
2019-06-20T15:32:55.577Z,26.90
2019-06-20T15:35:14.468Z,27.00
2019-06-20T15:38:28.551Z,27.10
2019-06-20T15:40:57.654Z,27.20
2019-06-20T15:43:25.526Z,27.30
2019-06-20T15:45:53.849Z,27.50
2019-06-20T15:48:22.682Z,27.80
2019-06-20T15:50:50.240Z,28.00
2019-06-20T15:53:17.575Z,28.30
2019-06-20T15:55:45.101Z,28.60
2019-06-20T15:58:14.312Z,28.70
2019-06-20T16:00:43.091Z,28.90
2019-06-20T16:03:14.364Z,29.10
2019-06-20T16:05:44.509Z,29.20
2019-06-20T16:08:15.934Z,29.30
2019-06-20T16:10:43.388Z,29.40
2019-06-20T16:13:10.834Z,29.50
2019-06-20T16:15:38.244Z,29.60
2019-06-20T16:18:05.823Z,29.70
2019-06-20T16:21:04.513Z,29.60
2019-06-20T16:23:32.247Z,29.60
2019-06-20T16:25:59.691Z,29.50
2019-06-20T16:28:27.667Z,29.40
2019-06-20T16:31:08.256Z,29.40
2019-06-20T16:33:26.614Z,29.20
2019-06-20T16:35:54.441Z,29.00
2019-06-20T16:38:21.974Z,28.80
2019-06-20T16:40:49.945Z,28.80
2019-06-20T16:43:18.395Z,28.60
2019-06-20T16:45:52.576Z,28.40
2019-06-20T16:48:33.021Z,28.40
2019-06-20T16:51:00.688Z,28.30
2019-06-20T16:53:28.327Z,28.10
2019-06-20T16:55:57.169Z,28.00
2019-06-20T16:58:25.173Z,27.90
2019-06-20T17:00:53.072Z,27.80
2019-06-20T17:03:20.756Z,27.60
2019-06-20T17:05:48.394Z,27.50
2019-06-20T17:08:17.119Z,27.40
2019-06-20T17:10:44.828Z,27.40
2019-06-20T17:13:12.406Z,27.30
2019-06-20T17:15:40.746Z,27.30
2019-06-20T17:18:08.389Z,27.20
2019-06-20T17:20:35.939Z,27.10
2019-06-20T17:23:04.645Z,27.00
2019-06-20T17:25:32.115Z,26.90
2019-06-20T17:27:59.503Z,26.80
2019-06-20T17:30:27.686Z,26.70
2019-06-20T17:32:57.493Z,26.60
2019-06-20T17:35:25.901Z,26.60
2019-06-20T17:37:53.534Z,26.40
2019-06-20T17:40:23.383Z,26.40
2019-06-20T17:42:50.881Z,26.20
2019-06-20T17:45:18.826Z,26.30
2019-06-20T17:47:47.210Z,26.20
2019-06-20T17:50:15.685Z,26.10
2019-06-20T17:52:43.421Z,26.10
2019-06-20T17:55:11.430Z,26.00
2019-06-20T17:57:40.104Z,25.90
2019-06-20T18:00:09.236Z,25.80
2019-06-20T18:02:37.213Z,25.80
2019-06-20T18:05:06.759Z,25.70
2019-06-20T18:07:34.139Z,25.70
2019-06-20T18:10:01.910Z,25.70
2019-06-20T18:12:29.745Z,25.50
2019-06-20T18:14:57.591Z,25.50
2019-06-20T18:17:25.755Z,25.40
2019-06-20T18:19:53.193Z,25.30
2019-06-20T18:22:21.699Z,25.20
2019-06-20T18:24:49.095Z,25.20
2019-06-20T18:27:16.680Z,25.10
2019-06-20T18:29:44.149Z,25.00
2019-06-20T18:32:12.075Z,25.00
2019-06-20T18:34:39.955Z,24.80
2019-06-20T18:37:08.327Z,24.80
2019-06-20T18:39:36.252Z,24.70
2019-06-20T18:42:03.910Z,24.60
2019-06-20T18:44:31.887Z,24.60
2019-06-20T18:47:02.704Z,24.50
2019-06-20T18:49:30.507Z,24.40
2019-06-20T18:52:01.090Z,24.40
2019-06-20T18:54:28.900Z,24.30
2019-06-20T18:56:56.325Z,24.20
2019-06-20T18:59:25.836Z,24.20
2019-06-20T19:01:54.759Z,24.10
2019-06-20T19:04:23.536Z,24.10
2019-06-20T19:06:51.069Z,24.00
2019-06-20T19:09:18.571Z,24.00
2019-06-20T19:11:47.038Z,23.70
2019-06-20T19:14:17.111Z,23.90
2019-06-20T19:16:45.164Z,23.80
2019-06-20T19:19:13.161Z,23.80
2019-06-20T19:21:41.466Z,23.70
2019-06-20T19:24:09.650Z,23.70
2019-06-20T19:26:37.375Z,23.70
2019-06-20T19:29:05.558Z,23.60
2019-06-20T19:31:33.563Z,23.60
2019-06-20T19:34:01.700Z,23.50
2019-06-20T19:36:29.335Z,23.50
2019-06-20T19:38:57.024Z,23.40
2019-06-20T19:41:24.969Z,23.50
2019-06-20T19:43:53.191Z,23.40
2019-06-20T19:46:21.543Z,23.50
2019-06-20T19:48:49.167Z,23.40
2019-06-20T19:51:16.532Z,23.40
2019-06-20T19:53:45.999Z,23.30
2019-06-20T19:56:14.841Z,23.30
2019-06-20T19:58:42.573Z,23.30
2019-06-20T20:01:10.341Z,23.30
2019-06-20T20:03:37.838Z,23.30
2019-06-20T20:06:06.350Z,23.10
2019-06-20T20:08:34.031Z,23.20
2019-06-20T20:11:02.015Z,23.10
2019-06-20T20:13:29.538Z,23.20
2019-06-20T20:15:57.196Z,23.00
2019-06-20T20:18:24.825Z,22.90
2019-06-20T20:20:52.900Z,22.90
2019-06-20T20:23:23.668Z,22.70
2019-06-20T20:25:51.023Z,22.80
2019-06-20T20:28:19.301Z,22.70
2019-06-20T20:30:46.881Z,22.70
2019-06-20T20:33:14.518Z,22.70
2019-06-20T20:35:42.649Z,22.70
2019-06-20T20:38:10.332Z,22.60
2019-06-20T20:40:39.275Z,22.50
2019-06-20T20:43:13.886Z,22.50
2019-06-20T20:45:43.447Z,22.40
2019-06-20T20:48:12.555Z,22.40
2019-06-20T20:50:42.481Z,22.40
2019-06-20T20:53:11.691Z,22.30
2019-06-20T20:55:39.318Z,22.30
2019-06-20T20:58:06.787Z,22.30
2019-06-20T21:00:52.669Z,22.30
2019-06-20T21:03:20.743Z,22.30
2019-06-20T21:05:51.747Z,22.20
2019-06-20T21:08:17.347Z,22.20
2019-06-20T21:10:45.133Z,22.10
2019-06-20T21:13:12.480Z,22.10
2019-06-20T21:15:40.276Z,22.10
2019-06-20T21:18:09.864Z,22.00
2019-06-20T21:20:37.534Z,22.00
2019-06-20T21:23:05.277Z,21.80
2019-06-20T21:25:32.750Z,21.90
2019-06-20T21:28:00.199Z,21.90
2019-06-20T21:30:27.856Z,21.70
2019-06-20T21:32:55.251Z,21.70
2019-06-20T21:35:22.819Z,21.60
2019-06-20T21:37:50.339Z,21.60
2019-06-20T21:40:18.317Z,21.50
2019-06-20T21:42:46.633Z,21.40
2019-06-20T21:45:14.173Z,21.30
2019-06-20T21:47:41.614Z,21.30
2019-06-20T21:50:09.470Z,21.20
2019-06-20T21:52:36.823Z,21.10
2019-06-20T21:55:04.787Z,21.10
2019-06-20T21:57:32.513Z,21.10
2019-06-20T22:00:04.968Z,21.00
2019-06-20T22:02:37.319Z,20.90
2019-06-20T22:05:05.262Z,21.10
2019-06-20T22:07:35.048Z,21.10
2019-06-20T22:10:02.823Z,21.10
2019-06-20T22:12:30.842Z,21.10
2019-06-20T22:14:58.299Z,21.10
2019-06-20T22:17:25.897Z,21.10
2019-06-20T22:19:53.290Z,21.10
2019-06-20T22:22:20.936Z,21.10
2019-06-20T22:24:52.769Z,21.10
2019-06-20T22:27:20.287Z,21.10
2019-06-20T22:29:47.784Z,21.10
2019-06-20T22:32:15.204Z,21.10
2019-06-20T22:34:43.956Z,21.10
2019-06-20T22:37:11.531Z,21.10
2019-06-20T22:39:39.260Z,21.10
2019-06-20T22:42:08.612Z,21.10
2019-06-20T22:44:35.975Z,21.00
2019-06-20T22:47:03.502Z,21.00
2019-06-20T22:49:31.020Z,21.10
2019-06-20T22:55:37.431Z,21.00
2019-06-20T22:58:05.388Z,21.00
2019-06-20T23:00:32.913Z,20.90
2019-06-20T23:03:00.339Z,20.90
2019-06-20T23:05:27.950Z,20.90
2019-06-20T23:07:55.459Z,20.90
2019-06-20T23:10:23.337Z,20.80
2019-06-20T23:12:50.807Z,20.80
2019-06-20T23:15:18.605Z,20.80
2019-06-20T23:17:46.203Z,20.70
2019-06-20T23:20:13.979Z,20.60
2019-06-20T23:22:41.645Z,20.60
2019-06-20T23:25:10.235Z,20.50
2019-06-20T23:27:37.725Z,20.50
2019-06-20T23:30:06.642Z,20.40
2019-06-20T23:32:34.142Z,20.50
2019-06-20T23:35:01.780Z,20.30
2019-06-20T23:37:29.405Z,20.20
2019-06-20T23:39:56.745Z,20.10
2019-06-20T23:42:24.280Z,20.10
2019-06-20T23:44:51.958Z,20.00
2019-06-20T23:47:19.571Z,19.90
2019-06-20T23:49:47.265Z,19.80
2019-06-20T23:52:18.803Z,19.80
2019-06-20T23:54:46.243Z,19.80
2019-06-20T23:57:13.719Z,19.70
2019-06-20T23:59:41.780Z,19.70
